Time;durP1;ratioP1;P1;durP2;ratioP2;P2;SDS_P1;SDS_P2;PMS_P1;PMS_P2;Temp;Humidity;BMP_temperature;BMP_pressure;BME280_temperature;BME280_humidity;BME280_pressure;Samples;Min_cycle;Max_cycle;Signal;HPM_P1;HPM_P2
2022/09/02 00:00:41;;;;;;;1.70;1.57;;;24.20;44.50;;;;;;5047518;28;20450;-82
2022/09/02 00:03:08;;;;;;;1.40;1.30;;;24.20;44.60;;;;;;5048730;28;20387;-82
2022/09/02 00:05:36;;;;;;;2.10;1.40;;;24.20;44.60;;;;;;5048710;28;20410;-81
2022/09/02 00:08:04;;;;;;;2.50;1.43;;;24.20;44.70;;;;;;5047200;28;20406;-82
2022/09/02 00:10:31;;;;;;;4.10;1.23;;;24.20;44.70;;;;;;5047277;28;20446;-82
2022/09/02 00:12:57;;;;;;;1.70;1.37;;;24.20;44.70;;;;;;5047582;28;20415;-83
2022/09/02 00:15:23;;;;;;;1.90;1.40;;;24.20;44.70;;;;;;5047150;28;20910;-82
2022/09/02 00:17:49;;;;;;;2.77;1.40;;;24.20;44.70;;;;;;5045988;28;20437;-82
2022/09/02 00:20:17;;;;;;;1.60;1.20;;;24.20;44.70;;;;;;5047809;28;20414;-82
2022/09/02 00:22:43;;;;;;;1.83;1.30;;;24.20;44.70;;;;;;5047431;28;20421;-82
2022/09/02 00:25:10;;;;;;;1.60;1.30;;;24.20;44.70;;;;;;5047190;28;20478;-83
2022/09/02 00:27:36;;;;;;;1.40;1.30;;;24.20;44.70;;;;;;5046820;28;20446;-82
2022/09/02 00:30:07;;;;;;;1.67;1.30;;;24.20;44.70;;;;;;5046702;28;20494;-82
2022/09/02 00:32:33;;;;;;;1.83;1.40;;;24.20;44.70;;;;;;5048083;28;20425;-82
2022/09/02 00:35:02;;;;;;;1.77;1.43;;;24.20;44.70;;;;;;5047348;28;20490;-82
2022/09/02 00:37:28;;;;;;;1.40;1.20;;;24.20;44.80;;;;;;5046863;28;20239;-82
2022/09/02 00:39:56;;;;;;;1.27;1.17;;;24.20;44.60;;;;;;5047012;28;20411;-82
2022/09/02 00:42:24;;;;;;;1.33;1.17;;;24.20;44.50;;;;;;5046551;28;20462;-81
2022/09/02 00:44:50;;;;;;;1.97;1.47;;;24.20;44.40;;;;;;5047088;28;20411;-82
2022/09/02 00:47:16;;;;;;;1.47;1.37;;;24.20;44.50;;;;;;5046380;28;20413;-82
2022/09/02 00:49:47;;;;;;;2.07;1.20;;;24.20;44.60;;;;;;5046239;28;20411;-82
2022/09/02 00:52:16;;;;;;;1.60;1.33;;;24.20;44.60;;;;;;5046457;28;20422;-81
2022/09/02 00:54:58;;;;;;;2.27;1.30;;;24.20;44.60;;;;;;5046197;28;20415;-82
2022/09/02 00:57:32;;;;;;;3.13;1.30;;;24.20;44.60;;;;;;5046261;28;20425;-82
2022/09/02 01:00:00;;;;;;;2.27;1.40;;;24.20;44.70;;;;;;5047478;28;20421;-82
2022/09/02 01:02:27;;;;;;;2.17;1.70;;;24.20;44.60;;;;;;5046104;28;20514;-82
2022/09/02 01:04:55;;;;;;;1.33;1.23;;;24.20;44.60;;;;;;5047191;28;20410;-82
2022/09/02 01:07:22;;;;;;;1.33;1.20;;;24.20;44.70;;;;;;5046146;28;20418;-82
2022/09/02 01:09:50;;;;;;;5.40;1.30;;;24.20;44.60;;;;;;5045826;28;20414;-82
2022/09/02 01:12:23;;;;;;;2.17;1.60;;;24.20;44.60;;;;;;5045801;28;20501;-82
2022/09/02 01:14:49;;;;;;;1.70;1.30;;;24.20;44.60;;;;;;5046817;28;20394;-82
2022/09/02 01:17:19;;;;;;;1.57;1.40;;;24.20;44.50;;;;;;5046371;28;20837;-82
2022/09/02 01:19:49;;;;;;;1.53;1.10;;;24.20;44.50;;;;;;5046678;28;20707;-82
2022/09/02 01:22:21;;;;;;;1.67;1.40;;;24.20;44.50;;;;;;5045955;28;20450;-82
2022/09/02 01:24:47;;;;;;;1.77;1.53;;;24.20;44.50;;;;;;5045612;28;20410;-83
2022/09/02 01:30:40;;;;;;;1.47;1.20;;;24.20;44.50;;;;;;5046646;28;20709;-82
2022/09/02 01:33:07;;;;;;;1.60;1.20;;;24.20;44.50;;;;;;5046166;28;20453;-82
2022/09/02 01:35:33;;;;;;;2.30;1.27;;;24.20;44.50;;;;;;5046178;28;20448;-82
2022/09/02 01:38:00;;;;;;;2.10;1.70;;;24.20;44.50;;;;;;5044440;28;20445;-82
2022/09/02 01:40:28;;;;;;;1.97;1.43;;;24.20;44.50;;;;;;5045160;28;20849;-82
2022/09/02 01:42:57;;;;;;;1.60;1.30;;;24.20;44.40;;;;;;5046226;28;20406;-81
2022/09/02 01:45:23;;;;;;;2.00;1.40;;;24.20;44.30;;;;;;5045684;28;20403;-82
2022/09/02 01:47:50;;;;;;;1.80;1.30;;;24.20;44.40;;;;;;5045300;28;20411;-82
2022/09/02 01:50:18;;;;;;;1.47;1.37;;;24.20;44.20;;;;;;5044781;28;20411;-82
2022/09/02 01:52:44;;;;;;;1.93;1.50;;;24.20;44.30;;;;;;5045602;28;20403;-81
2022/09/02 01:55:11;;;;;;;2.27;1.40;;;24.10;44.20;;;;;;5045414;28;20406;-82
2022/09/02 01:57:36;;;;;;;1.80;1.50;;;24.10;44.30;;;;;;5045209;28;20395;-82
2022/09/02 02:00:05;;;;;;;1.57;1.40;;;24.10;44.30;;;;;;5047100;28;20422;-83
2022/09/02 02:02:31;;;;;;;1.77;1.20;;;24.10;44.20;;;;;;5045310;28;20259;-83
2022/09/02 02:08:20;;;;;;;1.80;1.30;;;24.10;44.20;;;;;;5046372;28;20393;-81
2022/09/02 02:10:47;;;;;;;1.70;1.53;;;24.10;44.30;;;;;;5046305;28;20474;-81
2022/09/02 02:13:13;;;;;;;2.23;1.23;;;24.10;44.30;;;;;;5044700;28;20860;-81
2022/09/02 02:15:41;;;;;;;1.60;1.20;;;24.10;44.20;;;;;;5046220;28;20415;-82
2022/09/02 02:18:08;;;;;;;1.80;1.40;;;24.10;44.20;;;;;;5046148;28;20175;-82
2022/09/02 02:20:38;;;;;;;1.53;1.37;;;24.00;44.10;;;;;;5044838;28;20480;-82
2022/09/02 02:23:06;;;;;;;1.70;1.33;;;24.00;44.10;;;;;;5045286;28;20441;-82
2022/09/02 02:25:34;;;;;;;1.10;1.00;;;24.00;44.00;;;;;;5045104;28;20417;-82
2022/09/02 02:28:00;;;;;;;1.83;1.27;;;24.00;44.10;;;;;;5044648;28;20461;-83
2022/09/02 02:30:26;;;;;;;1.33;1.17;;;24.00;44.10;;;;;;5044665;28;20453;-82
2022/09/02 02:32:52;;;;;;;2.07;1.30;;;24.00;44.20;;;;;;5044301;28;20493;-82
2022/09/02 02:35:19;;;;;;;1.87;1.37;;;24.00;44.20;;;;;;5045838;28;20410;-82
2022/09/02 02:37:48;;;;;;;1.40;1.20;;;24.00;44.30;;;;;;5044791;28;20414;-82
2022/09/02 02:40:14;;;;;;;2.20;1.50;;;24.00;44.40;;;;;;5043457;28;20460;-83
2022/09/02 02:42:40;;;;;;;2.40;1.40;;;24.00;44.40;;;;;;5044234;28;20414;-82
2022/09/02 02:45:10;;;;;;;1.60;1.43;;;24.00;44.30;;;;;;5044158;28;20410;-82
2022/09/02 02:47:45;;;;;;;2.10;1.13;;;24.00;44.40;;;;;;5046211;28;20418;-82
2022/09/02 02:50:14;;;;;;;1.40;1.30;;;24.00;44.30;;;;;;5029595;28;20412;-82
2022/09/02 02:52:41;;;;;;;1.73;1.47;;;24.00;44.40;;;;;;5029938;28;20411;-82
2022/09/02 02:55:09;;;;;;;1.70;1.43;;;24.00;44.40;;;;;;5030281;28;20437;-82
2022/09/02 02:57:37;;;;;;;2.10;1.40;;;24.00;44.40;;;;;;5030125;28;20426;-82
2022/09/02 03:00:17;;;;;;;1.33;1.10;;;24.10;44.40;;;;;;5030298;28;20871;-82
2022/09/02 03:02:45;;;;;;;1.30;1.10;;;24.10;44.40;;;;;;5040762;28;20406;-82
2022/09/02 03:05:13;;;;;;;1.30;1.10;;;24.00;44.30;;;;;;5030833;28;20413;-82
2022/09/02 03:07:39;;;;;;;1.63;1.40;;;24.10;44.40;;;;;;5046948;28;20406;-82
2022/09/02 03:10:07;;;;;;;1.67;1.37;;;24.00;44.30;;;;;;5046826;28;20431;-81
2022/09/02 03:12:34;;;;;;;1.50;1.40;;;24.10;44.40;;;;;;5046707;28;20406;-82
2022/09/02 03:15:00;;;;;;;1.83;1.33;;;24.10;44.30;;;;;;5030291;28;20398;-83
2022/09/02 03:17:27;;;;;;;1.90;1.70;;;24.10;44.30;;;;;;5047235;28;20902;-82
2022/09/02 03:19:54;;;;;;;1.70;1.23;;;24.00;44.20;;;;;;5047864;28;20417;-82
2022/09/02 03:22:20;;;;;;;1.40;1.10;;;24.00;44.20;;;;;;5047166;28;20454;-82
2022/09/02 03:24:46;;;;;;;1.73;1.23;;;24.10;44.30;;;;;;5047458;28;20438;-82
2022/09/02 03:27:13;;;;;;;1.37;1.27;;;24.10;44.30;;;;;;5047960;28;20414;-83
2022/09/02 03:29:43;;;;;;;2.23;1.50;;;24.10;44.40;;;;;;5046935;28;20414;-83
2022/09/02 03:32:09;;;;;;;1.97;1.30;;;24.00;44.20;;;;;;5046942;28;20434;-83
2022/09/02 03:34:36;;;;;;;1.30;1.17;;;24.00;44.30;;;;;;5046842;28;20419;-83
2022/09/02 03:37:02;;;;;;;2.90;1.53;;;24.00;44.30;;;;;;5050106;28;20491;-81
2022/09/02 03:39:29;;;;;;;1.93;1.20;;;24.10;44.90;;;;;;5052790;28;20419;-81
2022/09/02 03:41:58;;;;;;;1.70;1.40;;;24.10;44.30;;;;;;5052513;28;20457;-81
2022/09/02 03:44:24;;;;;;;1.50;1.20;;;24.00;44.30;;;;;;5046522;28;20407;-82
2022/09/02 03:46:52;;;;;;;1.60;1.10;;;24.10;44.40;;;;;;5049056;28;20442;-81
2022/09/02 03:49:22;;;;;;;2.70;1.47;;;24.10;44.30;;;;;;5049685;28;20721;-81
2022/09/02 03:51:48;;;;;;;6.03;1.80;;;24.10;44.30;;;;;;5050867;28;20436;-80
2022/09/02 03:54:15;;;;;;;2.30;1.23;;;24.00;44.30;;;;;;5053226;28;20429;-80
2022/09/02 04:00:08;;;;;;;1.63;1.20;;;24.10;44.50;;;;;;5059003;28;20373;-79
2022/09/02 04:02:38;;;;;;;2.20;1.50;;;24.00;44.40;;;;;;5054724;28;20465;-80
2022/09/02 04:05:11;;;;;;;1.63;1.23;;;24.00;44.50;;;;;;5056357;28;20426;-80
2022/09/02 04:07:43;;;;;;;1.93;1.20;;;24.00;44.50;;;;;;5055089;28;20429;-80
2022/09/02 04:10:15;;;;;;;1.93;1.20;;;24.00;44.50;;;;;;5054310;28;20421;-81
2022/09/02 04:12:42;;;;;;;1.97;1.37;;;24.00;44.60;;;;;;5053216;28;20864;-80
2022/09/02 04:15:18;;;;;;;2.23;1.53;;;24.10;44.60;;;;;;5052281;28;20506;-81
2022/09/02 04:21:18;;;;;;;2.47;1.40;;;24.10;44.70;;;;;;5053414;28;20515;-81
2022/09/02 04:23:46;;;;;;;1.70;1.20;;;24.10;44.70;;;;;;5052605;28;20472;-81
2022/09/02 04:26:18;;;;;;;1.97;1.27;;;24.00;44.70;;;;;;5052809;28;20418;-81
2022/09/02 04:28:47;;;;;;;2.03;1.20;;;24.10;44.70;;;;;;5052200;28;20415;-80
2022/09/02 04:31:30;;;;;;;;;;;;;;;;;;;;;
2022/09/02 04:34:06;;;;;;;3.50;1.40;;;24.10;44.70;;;;;;5054512;28;20422;-81
2022/09/02 04:36:42;;;;;;;1.47;1.10;;;24.10;44.70;;;;;;5055473;28;20463;-81
2022/09/02 04:39:09;;;;;;;1.60;1.20;;;24.10;44.70;;;;;;5037878;28;20441;-81
2022/09/02 04:41:37;;;;;;;1.50;1.20;;;24.10;44.80;;;;;;5037367;28;20465;-81
2022/09/02 04:44:07;;;;;;;2.60;1.30;;;24.10;44.80;;;;;;5054543;28;20715;-81
2022/09/02 04:46:35;;;;;;;1.60;1.20;;;24.10;44.70;;;;;;5038500;28;20430;-81
2022/09/02 04:49:24;;;;;;;1.80;1.20;;;24.10;44.70;;;;;;5054972;28;20436;-81
2022/09/02 04:51:56;;;;;;;1.57;1.37;;;24.10;44.70;;;;;;5055322;28;20421;-81
2022/09/02 04:54:31;;;;;;;1.10;1.00;;;24.10;44.70;;;;;;5055093;28;20422;-81
2022/09/02 04:56:57;;;;;;;2.13;1.43;;;24.10;44.70;;;;;;5055208;28;20441;-81
2022/09/02 04:59:27;;;;;;;3.00;1.43;;;24.10;44.80;;;;;;5054772;28;20461;-81
2022/09/02 05:01:54;;;;;;;2.07;1.27;;;24.10;44.80;;;;;;5056063;28;20457;-81
2022/09/02 05:04:22;;;;;;;2.33;1.60;;;24.10;44.80;;;;;;5055733;28;20407;-81
2022/09/02 05:06:53;;;;;;;1.83;1.20;;;24.10;44.80;;;;;;5055421;28;20413;-81
2022/09/02 05:09:21;;;;;;;1.70;1.20;;;24.10;44.80;;;;;;5039994;28;20427;-81
2022/09/02 05:12:01;;;;;;;;;;;;;;;;;;;;;
2022/09/02 05:14:42;;;;;;;2.53;1.23;;;24.20;44.90;;;;;;5057529;28;20435;-81
2022/09/02 05:17:38;;;;;;;2.70;1.70;;;24.10;44.80;;;;;;5056473;28;20406;-81
2022/09/02 05:20:07;;;;;;;1.93;1.47;;;24.10;44.80;;;;;;5056222;28;20415;-81
2022/09/02 05:22:47;;;;;;;1.80;1.40;;;24.10;44.90;;;;;;5052924;28;20461;-81
2022/09/02 05:25:16;;;;;;;1.50;1.37;;;24.10;44.90;;;;;;5051750;28;20407;-81
2022/09/02 05:27:44;;;;;;;1.80;1.40;;;24.10;44.80;;;;;;5034788;28;20414;-81
2022/09/02 05:30:15;;;;;;;2.50;1.50;;;24.10;44.90;;;;;;5051635;28;20441;-81
2022/09/02 05:32:43;;;;;;;2.33;1.50;;;24.10;44.90;;;;;;5051385;28;20871;-81
2022/09/02 05:35:16;;;;;;;2.27;1.50;;;24.10;44.90;;;;;;5050793;28;20710;-81
2022/09/02 05:37:54;;;;;;;1.60;1.40;;;24.20;44.90;;;;;;5050675;28;20415;-80
2022/09/02 05:40:39;;;;;;;1.53;1.43;;;24.10;44.90;;;;;;5054704;28;20464;-80
2022/09/02 05:43:24;;;;;;;4.20;1.50;;;24.10;44.90;;;;;;5051028;28;20410;-81
2022/09/02 05:45:53;;;;;;;1.77;1.43;;;24.10;44.90;;;;;;5051063;28;20430;-80
2022/09/02 05:51:10;;;;;;;3.20;2.07;;;24.10;44.90;;;;;;5052501;28;20402;-80
2022/09/02 05:53:52;;;;;;;1.60;1.50;;;24.10;44.90;;;;;;5052412;28;20426;-81
2022/09/02 05:56:34;;;;;;;2.03;1.40;;;24.10;45.50;;;;;;5052811;28;20410;-81
2022/09/02 06:06:04;;;;;;;2.47;1.40;;;24.10;44.80;;;;;;4974588;28;20394;-80
2022/09/02 06:08:51;;;;;;;2.57;1.47;;;24.00;44.80;;;;;;4956755;29;20429;-80
2022/09/02 06:11:23;;;;;;;1.90;1.30;;;24.00;44.80;;;;;;4951101;29;20427;-81
2022/09/02 06:13:59;;;;;;;2.17;1.50;;;24.00;44.80;;;;;;4955834;29;20415;-80
2022/09/02 06:16:31;;;;;;;2.90;1.47;;;24.00;44.80;;;;;;4953995;29;20416;-80
2022/09/02 06:19:02;;;;;;;2.53;1.30;;;24.00;44.80;;;;;;4974338;29;20415;-81
2022/09/02 06:21:40;;;;;;;2.83;1.70;;;24.00;44.80;;;;;;4939893;29;20458;-81
2022/09/02 06:24:11;;;;;;;1.80;1.60;;;24.00;44.80;;;;;;4957226;29;20418;-81
2022/09/02 06:26:42;;;;;;;1.73;1.50;;;24.00;44.90;;;;;;4957822;29;20402;-81
2022/09/02 06:29:15;;;;;;;1.80;1.50;;;24.00;44.80;;;;;;4957999;29;20417;-80
2022/09/02 06:35:00;;;;;;;1.57;1.23;;;24.00;45.50;;;;;;4974513;29;20453;-81
2022/09/02 06:37:29;;;;;;;2.17;1.47;;;24.00;44.80;;;;;;4958858;29;20460;-81
2022/09/02 06:39:57;;;;;;;1.83;1.57;;;24.00;44.90;;;;;;5042458;28;20410;-83
2022/09/02 06:42:24;;;;;;;1.43;1.17;;;24.00;44.80;;;;;;5047966;28;20526;-83
2022/09/02 06:44:54;;;;;;;2.00;1.43;;;24.00;44.80;;;;;;5047523;28;20426;-83
2022/09/02 06:47:24;;;;;;;2.10;1.37;;;24.00;44.70;;;;;;5047076;28;20403;-83
2022/09/02 06:49:52;;;;;;;2.43;1.57;;;24.00;44.70;;;;;;5032509;28;20457;-83
2022/09/02 06:52:21;;;;;;;2.33;1.63;;;24.00;44.70;;;;;;5049019;28;20421;-83
2022/09/02 06:54:59;;;;;;;2.00;1.80;;;24.00;44.70;;;;;;5049660;28;20413;-83
2022/09/02 06:57:25;;;;;;;1.50;1.40;;;24.00;44.60;;;;;;5048934;28;20517;-83
2022/09/02 07:06:26;;;;;;;1.47;1.37;;;24.00;44.80;;;;;;5048152;28;20378;-82
2022/09/02 07:08:57;;;;;;;2.00;1.43;;;24.00;44.80;;;;;;5038715;28;20395;-82
2022/09/02 07:11:57;;;;;;;2.43;1.47;;;24.00;44.70;;;;;;5050507;28;20406;-82
2022/09/02 07:18:12;;;;;;;1.67;1.40;;;24.00;44.80;;;;;;5053943;28;20383;-82
2022/09/02 07:20:39;;;;;;;1.70;1.40;;;24.00;44.90;;;;;;5036703;28;20394;-82
2022/09/02 07:23:06;;;;;;;1.50;1.40;;;24.00;44.90;;;;;;5053411;28;20418;-82
2022/09/02 07:25:42;;;;;;;2.23;1.30;;;24.00;45.00;;;;;;5054471;28;20414;-82
2022/09/02 07:28:16;;;;;;;1.90;1.27;;;24.00;44.90;;;;;;5057626;28;20422;-82
2022/09/02 07:35:06;;;;;;;2.00;1.53;;;24.00;44.70;;;;;;5058571;28;20378;-82
2022/09/02 07:37:39;;;;;;;2.17;1.40;;;24.00;44.70;;;;;;5057792;28;20422;-83
2022/09/02 07:40:10;;;;;;;2.60;1.40;;;24.00;44.70;;;;;;5057492;28;20406;-83
2022/09/02 07:42:39;;;;;;;1.40;1.30;;;23.90;44.70;;;;;;5056396;28;20457;-83
2022/09/02 07:49:02;;;;;;;1.33;1.23;;;24.00;44.90;;;;;;4956203;29;20439;-83
2022/09/02 07:51:48;;;;;;;1.20;1.00;;;24.00;44.80;;;;;;4959823;29;20410;-82
2022/09/02 07:57:11;;;;;;;1.97;1.60;;;24.00;44.80;;;;;;4971667;29;20406;-82
2022/09/02 07:59:42;;;;;;;1.83;1.30;;;24.00;44.80;;;;;;4954374;29;20426;-82
2022/09/02 08:02:09;;;;;;;1.50;1.20;;;24.00;44.80;;;;;;4953483;29;20484;-83
2022/09/02 08:04:41;;;;;;;2.20;1.63;;;24.00;44.70;;;;;;4953526;29;20414;-83
2022/09/02 08:07:23;;;;;;;;;;;;;;;;;;;;;
2022/09/02 08:09:54;;;;;;;1.60;1.47;;;24.00;44.50;;;;;;4953206;29;20538;-82
2022/09/02 08:15:50;;;;;;;2.27;1.30;;;24.00;44.50;;;;;;4969669;29;20788;-83
2022/09/02 08:18:20;;;;;;;2.30;1.27;;;24.00;44.40;;;;;;4989114;28;20418;-83
2022/09/02 08:27:20;;;;;;;2.00;1.47;;;24.00;44.30;;;;;;4930263;28;20444;-83
2022/09/02 08:29:57;;;;;;;;;;;;;;;;;;;;;
2022/09/02 08:32:29;;;;;;;1.80;1.40;;;23.90;44.40;;;;;;4873912;29;20506;-83
2022/09/02 08:35:04;;;;;;;2.33;1.30;;;23.90;44.40;;;;;;4857757;29;20411;-83
2022/09/02 08:37:41;;;;;;;1.67;1.57;;;23.90;44.40;;;;;;4876790;29;20425;-83
2022/09/02 08:40:39;;;;;;;1.70;1.50;;;23.90;44.40;;;;;;4877271;29;20429;-84
2022/09/02 08:43:44;;;;;;;1.40;1.10;;;24.00;44.40;;;;;;4840563;29;20428;-84
2022/09/02 08:46:16;;;;;;;1.50;1.30;;;24.00;44.30;;;;;;4855949;29;20411;-83
2022/09/02 08:49:07;;;;;;;1.50;1.23;;;23.90;44.30;;;;;;4855968;29;20419;-83
2022/09/02 08:58:17;;;;;;;1.23;1.07;;;23.90;44.00;;;;;;4855811;29;20912;-83
2022/09/02 09:01:33;;;;;;;3.20;1.40;;;23.90;44.10;;;;;;4884460;29;20467;-83
2022/09/02 09:04:32;;;;;;;1.97;1.17;;;23.90;44.00;;;;;;4892697;29;20417;-83
2022/09/02 09:07:19;;;;;;;2.03;1.27;;;23.90;43.90;;;;;;4877127;29;20417;-82
2022/09/02 09:10:06;;;;;;;1.20;1.00;;;23.90;44.00;;;;;;4892662;29;20409;-83
2022/09/02 09:12:38;;;;;;;4.70;1.50;;;23.90;43.80;;;;;;4893047;29;20429;-83
2022/09/02 09:15:37;;;;;;;2.57;1.10;;;23.90;43.50;;;;;;4895429;29;20518;-83
2022/09/02 09:18:16;;;;;;;2.40;1.53;;;23.90;43.50;;;;;;4929479;29;20422;-83
2022/09/02 09:24:09;;;;;;;3.33;1.50;;;23.90;43.30;;;;;;4991517;28;20467;-84
2022/09/02 09:26:40;;;;;;;2.10;1.13;;;23.90;43.40;;;;;;5007630;28;20411;-82
2022/09/02 09:29:12;;;;;;;1.30;1.00;;;23.90;43.40;;;;;;5015659;28;20400;-81
2022/09/02 09:31:55;;;;;;;1.30;1.20;;;23.90;43.30;;;;;;5015001;28;20502;-81
2022/09/02 09:34:22;;;;;;;2.00;1.10;;;23.90;43.20;;;;;;5015393;28;20426;-81
2022/09/02 09:37:11;;;;;;;1.37;1.27;;;23.90;43.10;;;;;;5015558;28;20495;-80
2022/09/02 09:39:47;;;;;;;1.70;1.27;;;24.00;43.50;;;;;;5009480;28;20419;-81
2022/09/02 09:42:44;;;;;;;1.50;1.23;;;23.90;43.00;;;;;;5015041;28;20465;-81
2022/09/02 09:45:35;;;;;;;1.67;1.10;;;24.00;42.90;;;;;;5013748;28;20413;-81
2022/09/02 09:48:26;;;;;;;3.73;1.30;;;23.90;42.90;;;;;;5014393;28;20475;-81
2022/09/02 09:51:32;;;;;;;1.67;1.30;;;23.90;42.60;;;;;;5013805;28;20406;-81
2022/09/02 09:57:29;;;;;;;1.50;1.30;;;23.90;42.40;;;;;;4990037;28;20392;-81
2022/09/02 10:00:02;;;;;;;1.20;1.10;;;23.90;42.20;;;;;;4975160;28;20415;-81
2022/09/02 10:02:32;;;;;;;2.30;1.10;;;23.90;42.30;;;;;;4972254;28;20536;-81
2022/09/02 10:05:41;;;;;;;;;;;;;;;;;;;;;
2022/09/02 10:08:51;;;;;;;2.00;1.10;;;23.90;42.40;;;;;;5009472;28;20447;-81
2022/09/02 10:11:33;;;;;;;1.20;1.00;;;23.90;42.10;;;;;;5009817;28;20401;-81
2022/09/02 10:14:38;;;;;;;1.10;1.00;;;23.90;42.40;;;;;;4993641;28;20408;-81
2022/09/02 10:17:45;;;;;;;1.30;1.00;;;23.90;42.00;;;;;;4970591;29;20425;-81
2022/09/02 10:20:34;;;;;;;1.63;1.20;;;23.90;41.70;;;;;;4975104;28;20784;-81
2022/09/02 10:27:07;;;;;;;1.17;1.07;;;23.90;42.00;;;;;;5009252;28;20447;-81
2022/09/02 10:29:54;;;;;;;1.00;0.90;;;23.90;42.00;;;;;;4992798;28;20476;-80
2022/09/02 10:32:45;;;;;;;1.30;1.00;;;23.90;42.20;;;;;;4992795;28;20436;-81
2022/09/02 10:35:21;;;;;;;1.73;0.90;;;23.90;42.00;;;;;;4992502;28;20425;-81
2022/09/02 10:38:34;;;;;;;1.30;1.20;;;23.90;42.10;;;;;;5008930;28;20426;-80
2022/09/02 10:41:30;;;;;;;1.83;1.17;;;23.90;42.10;;;;;;4992097;28;20484;-80
2022/09/02 10:47:39;;;;;;;3.23;1.30;;;23.90;42.10;;;;;;4972131;28;20413;-81
2022/09/02 10:50:33;;;;;;;2.53;1.13;;;23.90;42.10;;;;;;4989439;28;20413;-80
2022/09/02 10:53:12;;;;;;;3.50;1.17;;;24.00;42.10;;;;;;4989906;28;20393;-80
2022/09/02 10:56:03;;;;;;;1.23;1.00;;;23.90;41.90;;;;;;4973383;28;20409;-81
2022/09/02 10:58:53;;;;;;;1.13;1.00;;;24.00;42.10;;;;;;4989981;28;20389;-81
2022/09/02 11:01:42;;;;;;;1.37;0.90;;;24.00;41.90;;;;;;4974771;28;20511;-81
2022/09/02 11:04:46;;;;;;;1.37;1.13;;;24.00;41.70;;;;;;4977405;28;20417;-81
2022/09/02 11:07:33;;;;;;;2.23;1.03;;;24.00;41.60;;;;;;4916999;29;20413;-81
2022/09/02 11:10:17;;;;;;;3.43;1.20;;;24.00;41.70;;;;;;4901190;29;20412;-81
2022/09/02 11:12:58;;;;;;;1.60;1.30;;;24.00;41.70;;;;;;4917324;29;20436;-81
2022/09/02 11:15:52;;;;;;;1.93;1.30;;;24.00;41.80;;;;;;4901088;29;20436;-81
2022/09/02 11:18:41;;;;;;;1.30;1.13;;;24.00;41.70;;;;;;4956970;29;20422;-81
2022/09/02 11:21:49;;;;;;;1.63;1.10;;;24.00;41.80;;;;;;4961024;29;20458;-80
2022/09/02 11:25:07;;;;;;;2.23;1.00;;;24.00;41.50;;;;;;4973102;29;20425;-80
2022/09/02 11:28:09;;;;;;;1.37;1.20;;;24.00;41.80;;;;;;4936888;29;20422;-80
2022/09/02 11:31:18;;;;;;;1.37;1.00;;;24.00;41.70;;;;;;4935722;29;20406;-79
2022/09/02 11:34:26;;;;;;;2.27;1.33;;;23.90;41.60;;;;;;4953132;29;20430;-80
2022/09/02 11:37:17;;;;;;;;;;;;;;;;;;;;;
2022/09/02 11:40:02;;;;;;;2.00;1.27;;;23.90;41.80;;;;;;4954437;29;20419;-81
2022/09/02 11:43:01;;;;;;;1.53;1.30;;;24.00;41.80;;;;;;4952094;28;20465;-81
2022/09/02 11:45:56;;;;;;;1.67;1.50;;;24.00;41.80;;;;;;4977633;28;20417;-81
2022/09/02 11:52:26;;;;;;;1.33;1.10;;;24.00;41.60;;;;;;4994126;28;20428;-81
2022/09/02 11:55:44;;;;;;;1.20;1.10;;;24.00;41.50;;;;;;4920515;29;20462;-81
2022/09/02 11:58:46;;;;;;;1.17;1.07;;;24.00;41.60;;;;;;4935194;28;20479;-81
2022/09/02 12:02:02;;;;;;;1.30;1.10;;;24.00;41.80;;;;;;4992189;28;20495;-80
2022/09/02 12:04:34;;;;;;;1.43;1.27;;;24.00;41.80;;;;;;5036632;28;20420;-81
2022/09/02 12:07:10;;;;;;;1.47;1.10;;;24.00;41.80;;;;;;5035448;28;20441;-81
2022/09/02 12:09:55;;;;;;;1.77;1.20;;;24.00;41.80;;;;;;5036233;28;20489;-81
2022/09/02 12:15:46;;;;;;;;;;;;;;;;;;;;;
2022/09/02 12:18:32;;;;;;;1.10;1.00;;;24.00;41.70;;;;;;5053628;28;20429;-81
2022/09/02 12:21:24;;;;;;;1.20;1.00;;;24.00;41.70;;;;;;5053075;28;20524;-81
2022/09/02 12:24:16;;;;;;;2.37;1.30;;;24.00;41.80;;;;;;4953948;29;20467;-80
2022/09/02 12:33:31;;;;;;;2.50;1.20;;;24.00;41.80;;;;;;4915603;29;20448;-81
2022/09/02 12:36:45;;;;;;;1.40;1.17;;;24.00;41.90;;;;;;4915484;29;20786;-81
2022/09/02 12:39:42;;;;;;;1.20;1.10;;;24.00;41.70;;;;;;4915839;29;20417;-81
2022/09/02 12:42:39;;;;;;;1.17;1.00;;;24.00;41.80;;;;;;4899876;29;20495;-81
2022/09/02 12:45:12;;;;;;;1.70;1.50;;;24.00;41.90;;;;;;4901519;29;20453;-80
2022/09/02 12:48:15;;;;;;;2.63;1.63;;;24.00;42.00;;;;;;4896536;29;20489;-81
2022/09/02 12:51:44;;;;;;;1.20;1.10;;;24.10;42.20;;;;;;4914319;29;20437;-82
2022/09/02 12:54:34;;;;;;;1.50;1.00;;;24.10;42.30;;;;;;4899476;29;20489;-80
2022/09/02 12:57:25;;;;;;;1.20;1.10;;;24.00;42.10;;;;;;4899703;29;20429;-81
2022/09/02 13:00:06;;;;;;;1.30;1.10;;;24.10;42.20;;;;;;4901077;29;20421;-81
2022/09/02 13:02:53;;;;;;;1.97;1.20;;;24.10;42.40;;;;;;4936074;29;20463;-81
2022/09/02 13:05:31;;;;;;;1.30;1.20;;;24.10;42.30;;;;;;4953862;29;20426;-81
2022/09/02 13:08:11;;;;;;;1.40;1.23;;;24.10;42.20;;;;;;5031738;28;20418;-83
2022/09/02 13:10:47;;;;;;;1.30;1.20;;;24.10;42.10;;;;;;5031883;28;20398;-83
2022/09/02 13:13:34;;;;;;;1.50;1.17;;;24.10;42.10;;;;;;5048770;28;20398;-83
2022/09/02 13:16:01;;;;;;;1.23;1.13;;;24.20;42.10;;;;;;5031789;28;20403;-84
2022/09/02 13:18:54;;;;;;;1.20;1.10;;;24.10;41.90;;;;;;5031551;28;20415;-83
2022/09/02 13:22:08;;;;;;;1.50;0.90;;;24.20;42.20;;;;;;5048664;28;20450;-84
2022/09/02 13:25:13;;;;;;;1.30;1.00;;;24.20;42.20;;;;;;5030379;28;20412;-84
2022/09/02 13:28:01;;;;;;;1.40;1.10;;;24.20;42.10;;;;;;4949548;29;20510;-84
2022/09/02 13:30:48;;;;;;;1.70;1.47;;;24.20;42.20;;;;;;4933834;29;20415;-82
2022/09/02 13:33:15;;;;;;;1.60;1.40;;;24.20;41.80;;;;;;4933712;29;20458;-82
2022/09/02 13:35:45;;;;;;;1.70;1.20;;;24.10;41.70;;;;;;4949923;29;20407;-82
2022/09/02 13:38:13;;;;;;;1.47;1.10;;;24.20;41.90;;;;;;4948768;29;20478;-82
2022/09/02 13:40:43;;;;;;;1.50;1.30;;;24.20;41.70;;;;;;4932750;29;20509;-83
2022/09/02 13:43:25;;;;;;;1.30;1.03;;;24.20;41.80;;;;;;4949246;29;20833;-82
2022/09/02 13:46:01;;;;;;;1.23;1.00;;;24.20;41.90;;;;;;4933323;29;20748;-83
2022/09/02 13:48:31;;;;;;;1.67;1.30;;;24.20;42.00;;;;;;4949216;29;20398;-82
2022/09/02 13:54:12;;;;;;;1.40;1.20;;;24.20;41.90;;;;;;4949489;29;20387;-83
2022/09/02 13:56:38;;;;;;;1.63;1.40;;;24.20;41.90;;;;;;4949044;29;20422;-83
2022/09/02 13:59:07;;;;;;;1.40;1.10;;;24.20;41.70;;;;;;4932522;29;20442;-83
2022/09/02 14:08:39;;;;;;;1.70;1.17;;;24.20;41.80;;;;;;4929551;28;20387;-83
2022/09/02 14:11:08;;;;;;;1.33;1.20;;;24.20;41.80;;;;;;4913868;29;20453;-83
2022/09/02 14:13:34;;;;;;;1.10;1.00;;;24.20;41.80;;;;;;4913564;29;20516;-83
2022/09/02 14:16:32;;;;;;;1.13;1.00;;;24.20;41.70;;;;;;4914105;29;20928;-83
2022/09/02 14:19:16;;;;;;;1.10;0.90;;;24.20;41.80;;;;;;4914085;29;20423;-83
2022/09/02 14:22:02;;;;;;;1.73;1.30;;;24.20;41.70;;;;;;4943723;29;20559;-83
2022/09/02 14:24:44;;;;;;;1.50;1.10;;;24.20;41.90;;;;;;4913424;29;20412;-83
2022/09/02 14:27:32;;;;;;;1.30;1.10;;;24.20;41.80;;;;;;4928962;29;20408;-82
2022/09/02 14:30:04;;;;;;;1.90;1.10;;;24.20;41.90;;;;;;4929040;29;20452;-82
2022/09/02 14:32:36;;;;;;;1.50;1.00;;;24.20;41.80;;;;;;4929451;29;20463;-82
2022/09/02 14:35:28;;;;;;;1.27;1.17;;;24.20;41.90;;;;;;4973229;28;20483;-82
2022/09/02 14:38:02;;;;;;;1.23;1.13;;;24.20;41.60;;;;;;4948162;29;20502;-82
2022/09/02 14:44:09;;;;;;;1.10;1.00;;;24.20;41.80;;;;;;4966636;29;20416;-82
2022/09/02 14:46:43;;;;;;;1.77;1.30;;;24.20;41.70;;;;;;4951453;29;20943;-82
2022/09/02 14:49:16;;;;;;;2.00;1.30;;;24.20;41.80;;;;;;4967043;29;20416;-82
2022/09/02 14:51:44;;;;;;;1.23;1.10;;;24.20;42.00;;;;;;4966906;29;20410;-82
2022/09/02 14:54:11;;;;;;;1.30;1.20;;;24.20;41.90;;;;;;4967376;29;20414;-82
2022/09/02 15:00:04;;;;;;;1.60;1.00;;;24.20;42.00;;;;;;4966949;28;20398;-83
2022/09/02 15:02:45;;;;;;;1.80;1.40;;;24.20;41.90;;;;;;4951026;29;20462;-82
2022/09/02 15:05:15;;;;;;;2.60;1.20;;;24.20;41.60;;;;;;4967217;29;20438;-83
2022/09/02 15:07:41;;;;;;;1.63;1.20;;;24.20;41.80;;;;;;4967042;29;20402;-83
2022/09/02 15:10:08;;;;;;;1.20;1.10;;;24.20;41.80;;;;;;4950074;29;20450;-83
2022/09/02 15:12:51;;;;;;;1.80;1.50;;;24.20;41.80;;;;;;4950371;29;20421;-84
2022/09/02 15:15:18;;;;;;;2.77;1.43;;;24.20;41.80;;;;;;4996352;28;20411;-83
2022/09/02 15:17:45;;;;;;;1.17;0.90;;;24.20;41.90;;;;;;5008762;28;20434;-83
2022/09/02 15:20:15;;;;;;;1.63;1.23;;;24.20;41.90;;;;;;5009105;28;20466;-82
2022/09/02 15:23:02;;;;;;;1.40;1.03;;;24.20;41.80;;;;;;5009200;28;20459;-82
2022/09/02 15:25:42;;;;;;;1.50;1.03;;;24.30;41.90;;;;;;5009223;28;20431;-82
2022/09/02 15:28:12;;;;;;;2.23;1.10;;;24.20;41.80;;;;;;5026573;28;20411;-83
2022/09/02 15:30:39;;;;;;;1.30;1.10;;;24.20;41.70;;;;;;5027234;28;20446;-82
2022/09/02 15:33:07;;;;;;;1.70;1.10;;;24.20;41.80;;;;;;5010072;28;20869;-82